sensor_id;sensor_type;location;lat;lon;timestamp;temperature;humidity
52709;DHT22;38606;52.986;6.980;2023-06-05T00:00:53;11.20;99.90
52709;DHT22;38606;52.986;6.980;2023-06-05T00:03:19;11.30;99.90
52709;DHT22;38606;52.986;6.980;2023-06-05T00:05:45;11.40;99.90
52709;DHT22;38606;52.986;6.980;2023-06-05T00:08:11;11.40;99.90
52709;DHT22;38606;52.986;6.980;2023-06-05T00:10:37;11.20;99.90
52709;DHT22;38606;52.986;6.980;2023-06-05T00:13:03;11.60;99.90
52709;DHT22;38606;52.986;6.980;2023-06-05T00:15:29;11.50;99.90
52709;DHT22;38606;52.986;6.980;2023-06-05T00:17:56;11.50;99.90
52709;DHT22;38606;52.986;6.980;2023-06-05T00:20:22;11.20;99.90
52709;DHT22;38606;52.986;6.980;2023-06-05T00:22:48;11.20;99.90
52709;DHT22;38606;52.986;6.980;2023-06-05T00:25:14;11.30;99.90
52709;DHT22;38606;52.986;6.980;2023-06-05T00:27:40;11.40;99.90
52709;DHT22;38606;52.986;6.980;2023-06-05T00:30:08;11.20;99.90
52709;DHT22;38606;52.986;6.980;2023-06-05T00:32:35;11.20;99.90
52709;DHT22;38606;52.986;6.980;2023-06-05T00:35:01;11.30;99.90
52709;DHT22;38606;52.986;6.980;2023-06-05T00:37:27;11.10;99.90
52709;DHT22;38606;52.986;6.980;2023-06-05T00:39:53;11.40;99.90
52709;DHT22;38606;52.986;6.980;2023-06-05T00:42:19;11.30;99.90
52709;DHT22;38606;52.986;6.980;2023-06-05T00:44:44;10.90;99.90
52709;DHT22;38606;52.986;6.980;2023-06-05T00:47:11;11.60;99.90
52709;DHT22;38606;52.986;6.980;2023-06-05T00:49:37;11.30;99.90
52709;DHT22;38606;52.986;6.980;2023-06-05T00:52:04;11.30;99.90
52709;DHT22;38606;52.986;6.980;2023-06-05T00:54:30;11.40;99.90
52709;DHT22;38606;52.986;6.980;2023-06-05T00:56:56;11.40;99.90
52709;DHT22;38606;52.986;6.980;2023-06-05T00:59:22;11.50;99.90
52709;DHT22;38606;52.986;6.980;2023-06-05T01:01:48;11.30;99.90
52709;DHT22;38606;52.986;6.980;2023-06-05T01:04:14;11.40;99.90
52709;DHT22;38606;52.986;6.980;2023-06-05T01:06:40;11.40;99.90
52709;DHT22;38606;52.986;6.980;2023-06-05T01:09:07;11.40;99.90
52709;DHT22;38606;52.986;6.980;2023-06-05T01:14:18;11.60;99.90
52709;DHT22;38606;52.986;6.980;2023-06-05T01:16:49;11.30;99.90
52709;DHT22;38606;52.986;6.980;2023-06-05T01:19:23;11.40;99.90
52709;DHT22;38606;52.986;6.980;2023-06-05T01:21:55;11.30;99.90
52709;DHT22;38606;52.986;6.980;2023-06-05T01:24:23;11.00;99.90
52709;DHT22;38606;52.986;6.980;2023-06-05T01:27:12;11.00;99.90
52709;DHT22;38606;52.986;6.980;2023-06-05T01:29:58;11.00;99.90
52709;DHT22;38606;52.986;6.980;2023-06-05T01:35:11;11.10;99.90
52709;DHT22;38606;52.986;6.980;2023-06-05T01:37:44;11.10;99.90
52709;DHT22;38606;52.986;6.980;2023-06-05T01:40:18;11.10;99.90
52709;DHT22;38606;52.986;6.980;2023-06-05T01:42:46;11.30;99.90
52709;DHT22;38606;52.986;6.980;2023-06-05T01:45:12;10.90;99.90
52709;DHT22;38606;52.986;6.980;2023-06-05T01:47:39;11.00;99.90
52709;DHT22;38606;52.986;6.980;2023-06-05T01:50:06;10.90;99.90
52709;DHT22;38606;52.986;6.980;2023-06-05T01:52:34;11.00;99.90
52709;DHT22;38606;52.986;6.980;2023-06-05T01:55:01;10.80;99.90
52709;DHT22;38606;52.986;6.980;2023-06-05T01:57:30;11.00;99.90
52709;DHT22;38606;52.986;6.980;2023-06-05T02:00:02;11.00;99.90
52709;DHT22;38606;52.986;6.980;2023-06-05T02:02:29;10.90;99.90
52709;DHT22;38606;52.986;6.980;2023-06-05T02:04:55;10.90;99.90
52709;DHT22;38606;52.986;6.980;2023-06-05T02:07:25;10.70;99.90
52709;DHT22;38606;52.986;6.980;2023-06-05T02:09:50;10.80;99.90
52709;DHT22;38606;52.986;6.980;2023-06-05T02:12:16;10.80;99.90
52709;DHT22;38606;52.986;6.980;2023-06-05T02:14:42;11.00;99.90
52709;DHT22;38606;52.986;6.980;2023-06-05T02:17:10;11.70;99.90
52709;DHT22;38606;52.986;6.980;2023-06-05T02:19:41;10.90;99.90
52709;DHT22;38606;52.986;6.980;2023-06-05T02:22:07;10.80;99.90
52709;DHT22;38606;52.986;6.980;2023-06-05T02:24:34;10.80;99.90
52709;DHT22;38606;52.986;6.980;2023-06-05T02:27:00;11.00;99.90
52709;DHT22;38606;52.986;6.980;2023-06-05T02:29:26;10.90;99.90
52709;DHT22;38606;52.986;6.980;2023-06-05T02:31:51;10.90;99.90
52709;DHT22;38606;52.986;6.980;2023-06-05T02:34:17;10.90;99.90
52709;DHT22;38606;52.986;6.980;2023-06-05T02:36:43;10.80;99.90
52709;DHT22;38606;52.986;6.980;2023-06-05T02:39:11;10.70;99.90
52709;DHT22;38606;52.986;6.980;2023-06-05T02:41:38;10.60;99.90
52709;DHT22;38606;52.986;6.980;2023-06-05T02:44:03;10.60;99.90
52709;DHT22;38606;52.986;6.980;2023-06-05T02:46:29;10.60;99.90
52709;DHT22;38606;52.986;6.980;2023-06-05T02:48:55;10.60;99.90
52709;DHT22;38606;52.986;6.980;2023-06-05T02:51:21;10.70;99.90
52709;DHT22;38606;52.986;6.980;2023-06-05T02:53:47;10.70;99.90
52709;DHT22;38606;52.986;6.980;2023-06-05T02:56:12;10.70;99.90
52709;DHT22;38606;52.986;6.980;2023-06-05T02:58:39;10.70;99.90
52709;DHT22;38606;52.986;6.980;2023-06-05T03:01:09;10.50;99.90
52709;DHT22;38606;52.986;6.980;2023-06-05T03:03:36;10.50;99.90
52709;DHT22;38606;52.986;6.980;2023-06-05T03:06:02;10.40;99.90
52709;DHT22;38606;52.986;6.980;2023-06-05T03:08:33;10.70;99.90
52709;DHT22;38606;52.986;6.980;2023-06-05T03:11:01;10.60;99.90
52709;DHT22;38606;52.986;6.980;2023-06-05T03:13:27;10.30;99.90
52709;DHT22;38606;52.986;6.980;2023-06-05T03:15:54;10.50;99.90
52709;DHT22;38606;52.986;6.980;2023-06-05T03:18:26;10.40;99.90
52709;DHT22;38606;52.986;6.980;2023-06-05T03:20:52;10.20;99.90
52709;DHT22;38606;52.986;6.980;2023-06-05T03:23:26;10.30;99.90
52709;DHT22;38606;52.986;6.980;2023-06-05T03:25:54;10.70;99.90
52709;DHT22;38606;52.986;6.980;2023-06-05T03:28:21;10.20;99.90
52709;DHT22;38606;52.986;6.980;2023-06-05T03:30:47;10.50;99.90
52709;DHT22;38606;52.986;6.980;2023-06-05T03:33:14;10.40;99.90
52709;DHT22;38606;52.986;6.980;2023-06-05T03:35:44;10.40;99.90
52709;DHT22;38606;52.986;6.980;2023-06-05T03:38:12;10.40;99.90
52709;DHT22;38606;52.986;6.980;2023-06-05T03:40:39;10.40;99.90
52709;DHT22;38606;52.986;6.980;2023-06-05T03:43:05;10.10;99.90
52709;DHT22;38606;52.986;6.980;2023-06-05T03:45:32;10.20;99.90
52709;DHT22;38606;52.986;6.980;2023-06-05T03:47:59;10.40;99.90
52709;DHT22;38606;52.986;6.980;2023-06-05T03:50:26;10.30;99.90
52709;DHT22;38606;52.986;6.980;2023-06-05T03:52:56;10.60;99.90
52709;DHT22;38606;52.986;6.980;2023-06-05T03:55:36;10.50;99.90
52709;DHT22;38606;52.986;6.980;2023-06-05T03:58:12;10.70;99.90
52709;DHT22;38606;52.986;6.980;2023-06-05T04:00:42;10.30;99.90
52709;DHT22;38606;52.986;6.980;2023-06-05T04:03:11;10.60;99.90
52709;DHT22;38606;52.986;6.980;2023-06-05T04:05:38;10.60;99.90
52709;DHT22;38606;52.986;6.980;2023-06-05T04:08:04;10.80;99.90
52709;DHT22;38606;52.986;6.980;2023-06-05T04:10:30;10.60;99.90
52709;DHT22;38606;52.986;6.980;2023-06-05T04:12:56;11.70;99.90
52709;DHT22;38606;52.986;6.980;2023-06-05T04:15:25;10.90;99.90
52709;DHT22;38606;52.986;6.980;2023-06-05T04:17:51;10.50;99.90
52709;DHT22;38606;52.986;6.980;2023-06-05T04:20:18;10.80;99.90
52709;DHT22;38606;52.986;6.980;2023-06-05T04:22:44;10.60;99.90
52709;DHT22;38606;52.986;6.980;2023-06-05T04:25:13;10.70;99.90
52709;DHT22;38606;52.986;6.980;2023-06-05T04:27:40;10.80;99.90
52709;DHT22;38606;52.986;6.980;2023-06-05T04:30:07;11.00;99.90
52709;DHT22;38606;52.986;6.980;2023-06-05T04:32:34;10.80;99.90
52709;DHT22;38606;52.986;6.980;2023-06-05T04:35:03;10.90;99.90
52709;DHT22;38606;52.986;6.980;2023-06-05T04:37:29;11.10;99.90
52709;DHT22;38606;52.986;6.980;2023-06-05T04:39:55;11.10;99.90
52709;DHT22;38606;52.986;6.980;2023-06-05T04:42:21;11.30;99.90
52709;DHT22;38606;52.986;6.980;2023-06-05T04:45:02;11.10;99.90
52709;DHT22;38606;52.986;6.980;2023-06-05T04:47:30;11.20;99.90
52709;DHT22;38606;52.986;6.980;2023-06-05T04:50:01;11.30;99.90
52709;DHT22;38606;52.986;6.980;2023-06-05T04:52:32;11.40;99.90
52709;DHT22;38606;52.986;6.980;2023-06-05T04:55:01;11.20;99.90
52709;DHT22;38606;52.986;6.980;2023-06-05T04:57:27;11.60;99.90
52709;DHT22;38606;52.986;6.980;2023-06-05T04:59:53;11.50;99.90
52709;DHT22;38606;52.986;6.980;2023-06-05T05:02:20;11.70;99.90
52709;DHT22;38606;52.986;6.980;2023-06-05T05:04:46;11.90;99.90
52709;DHT22;38606;52.986;6.980;2023-06-05T05:07:11;12.00;99.90
52709;DHT22;38606;52.986;6.980;2023-06-05T05:09:43;12.00;99.90
52709;DHT22;38606;52.986;6.980;2023-06-05T05:12:10;12.90;99.90
52709;DHT22;38606;52.986;6.980;2023-06-05T05:14:36;12.00;99.90
52709;DHT22;38606;52.986;6.980;2023-06-05T05:17:02;11.90;99.90
52709;DHT22;38606;52.986;6.980;2023-06-05T05:19:29;12.10;99.90
52709;DHT22;38606;52.986;6.980;2023-06-05T05:21:55;12.00;99.90
52709;DHT22;38606;52.986;6.980;2023-06-05T05:24:20;12.30;99.90
52709;DHT22;38606;52.986;6.980;2023-06-05T05:26:46;12.60;99.90
52709;DHT22;38606;52.986;6.980;2023-06-05T05:29:12;12.40;99.90
52709;DHT22;38606;52.986;6.980;2023-06-05T05:31:38;12.70;99.90
52709;DHT22;38606;52.986;6.980;2023-06-05T05:34:04;12.50;99.90
52709;DHT22;38606;52.986;6.980;2023-06-05T05:36:30;12.50;99.90
52709;DHT22;38606;52.986;6.980;2023-06-05T05:38:59;13.00;99.90
52709;DHT22;38606;52.986;6.980;2023-06-05T05:41:24;13.10;99.90
52709;DHT22;38606;52.986;6.980;2023-06-05T05:43:52;12.90;99.90
52709;DHT22;38606;52.986;6.980;2023-06-05T05:46:18;12.90;99.90
52709;DHT22;38606;52.986;6.980;2023-06-05T05:48:43;13.50;99.90
52709;DHT22;38606;52.986;6.980;2023-06-05T05:51:09;13.30;99.90
52709;DHT22;38606;52.986;6.980;2023-06-05T05:53:35;13.60;99.90
52709;DHT22;38606;52.986;6.980;2023-06-05T05:56:02;13.60;99.90
52709;DHT22;38606;52.986;6.980;2023-06-05T05:58:29;13.60;99.90
52709;DHT22;38606;52.986;6.980;2023-06-05T06:00:55;13.90;99.90
52709;DHT22;38606;52.986;6.980;2023-06-05T06:03:21;13.80;99.90
52709;DHT22;38606;52.986;6.980;2023-06-05T06:05:49;14.00;99.90
52709;DHT22;38606;52.986;6.980;2023-06-05T06:08:16;14.00;99.90
52709;DHT22;38606;52.986;6.980;2023-06-05T06:10:42;14.10;99.90
52709;DHT22;38606;52.986;6.980;2023-06-05T06:13:08;14.00;99.90
52709;DHT22;38606;52.986;6.980;2023-06-05T06:15:35;14.30;99.90
52709;DHT22;38606;52.986;6.980;2023-06-05T06:18:05;14.30;99.90
52709;DHT22;38606;52.986;6.980;2023-06-05T06:20:31;14.30;99.90
52709;DHT22;38606;52.986;6.980;2023-06-05T06:22:59;14.40;99.90
52709;DHT22;38606;52.986;6.980;2023-06-05T06:25:25;14.50;99.90
52709;DHT22;38606;52.986;6.980;2023-06-05T06:27:58;14.60;99.90
52709;DHT22;38606;52.986;6.980;2023-06-05T06:30:25;14.60;99.90
52709;DHT22;38606;52.986;6.980;2023-06-05T06:32:53;14.70;99.90
52709;DHT22;38606;52.986;6.980;2023-06-05T06:35:21;14.90;99.90
52709;DHT22;38606;52.986;6.980;2023-06-05T06:37:48;14.70;99.90
52709;DHT22;38606;52.986;6.980;2023-06-05T06:40:14;14.70;99.90
52709;DHT22;38606;52.986;6.980;2023-06-05T06:42:40;15.10;99.90
52709;DHT22;38606;52.986;6.980;2023-06-05T06:45:06;15.00;99.90
52709;DHT22;38606;52.986;6.980;2023-06-05T06:47:32;15.40;99.90
52709;DHT22;38606;52.986;6.980;2023-06-05T06:49:58;15.10;99.90
52709;DHT22;38606;52.986;6.980;2023-06-05T06:52:23;15.40;99.90
52709;DHT22;38606;52.986;6.980;2023-06-05T06:54:49;15.40;99.90
52709;DHT22;38606;52.986;6.980;2023-06-05T06:57:15;15.60;99.90
52709;DHT22;38606;52.986;6.980;2023-06-05T06:59:41;15.50;99.90
52709;DHT22;38606;52.986;6.980;2023-06-05T07:02:14;15.50;99.90
52709;DHT22;38606;52.986;6.980;2023-06-05T07:04:40;15.50;99.90
52709;DHT22;38606;52.986;6.980;2023-06-05T07:07:13;15.70;99.90
52709;DHT22;38606;52.986;6.980;2023-06-05T07:09:44;15.70;99.90
52709;DHT22;38606;52.986;6.980;2023-06-05T07:12:11;15.80;99.90
52709;DHT22;38606;52.986;6.980;2023-06-05T07:14:37;16.30;99.90
52709;DHT22;38606;52.986;6.980;2023-06-05T07:17:04;16.30;99.90
52709;DHT22;38606;52.986;6.980;2023-06-05T07:19:31;16.50;99.90
52709;DHT22;38606;52.986;6.980;2023-06-05T07:21:58;16.50;99.90
52709;DHT22;38606;52.986;6.980;2023-06-05T07:24:25;16.60;99.90
52709;DHT22;38606;52.986;6.980;2023-06-05T07:27:01;16.70;99.90
52709;DHT22;38606;52.986;6.980;2023-06-05T07:29:27;16.60;99.90
52709;DHT22;38606;52.986;6.980;2023-06-05T07:31:57;16.90;99.90
52709;DHT22;38606;52.986;6.980;2023-06-05T07:34:25;17.00;99.90
52709;DHT22;38606;52.986;6.980;2023-06-05T07:36:52;17.10;99.90
52709;DHT22;38606;52.986;6.980;2023-06-05T07:39:20;17.00;99.90
52709;DHT22;38606;52.986;6.980;2023-06-05T07:41:45;17.10;99.90
52709;DHT22;38606;52.986;6.980;2023-06-05T07:44:13;17.40;99.90
52709;DHT22;38606;52.986;6.980;2023-06-05T07:46:40;17.30;99.90
52709;DHT22;38606;52.986;6.980;2023-06-05T07:49:06;17.40;99.90
52709;DHT22;38606;52.986;6.980;2023-06-05T07:51:32;17.50;99.90
52709;DHT22;38606;52.986;6.980;2023-06-05T07:54:07;17.50;99.90
52709;DHT22;38606;52.986;6.980;2023-06-05T07:56:33;17.30;99.90
52709;DHT22;38606;52.986;6.980;2023-06-05T07:59:00;17.50;99.90
52709;DHT22;38606;52.986;6.980;2023-06-05T08:01:31;17.40;99.90
52709;DHT22;38606;52.986;6.980;2023-06-05T08:03:57;17.30;99.90
52709;DHT22;38606;52.986;6.980;2023-06-05T08:06:24;17.40;99.90
52709;DHT22;38606;52.986;6.980;2023-06-05T08:08:53;17.60;99.90
52709;DHT22;38606;52.986;6.980;2023-06-05T08:11:19;17.70;99.90
52709;DHT22;38606;52.986;6.980;2023-06-05T08:13:44;18.10;99.90
52709;DHT22;38606;52.986;6.980;2023-06-05T08:16:10;17.90;99.90
52709;DHT22;38606;52.986;6.980;2023-06-05T08:18:36;18.00;99.90
52709;DHT22;38606;52.986;6.980;2023-06-05T08:21:02;18.10;99.90
52709;DHT22;38606;52.986;6.980;2023-06-05T08:23:28;18.30;99.90
52709;DHT22;38606;52.986;6.980;2023-06-05T08:25:54;18.30;99.90
52709;DHT22;38606;52.986;6.980;2023-06-05T08:28:20;18.50;99.90
52709;DHT22;38606;52.986;6.980;2023-06-05T08:30:47;18.30;99.90
52709;DHT22;38606;52.986;6.980;2023-06-05T08:33:12;18.50;99.90
52709;DHT22;38606;52.986;6.980;2023-06-05T08:35:40;18.60;99.90
52709;DHT22;38606;52.986;6.980;2023-06-05T08:38:06;18.50;99.90
52709;DHT22;38606;52.986;6.980;2023-06-05T08:40:32;18.70;99.90
52709;DHT22;38606;52.986;6.980;2023-06-05T08:43:00;18.70;99.90
52709;DHT22;38606;52.986;6.980;2023-06-05T08:45:26;18.60;99.90
52709;DHT22;38606;52.986;6.980;2023-06-05T08:47:54;18.50;99.90
52709;DHT22;38606;52.986;6.980;2023-06-05T08:50:20;18.80;99.90
52709;DHT22;38606;52.986;6.980;2023-06-05T08:52:46;18.90;99.90
52709;DHT22;38606;52.986;6.980;2023-06-05T08:55:15;18.90;99.90
52709;DHT22;38606;52.986;6.980;2023-06-05T08:57:42;19.00;99.90
52709;DHT22;38606;52.986;6.980;2023-06-05T09:00:09;19.10;99.90
52709;DHT22;38606;52.986;6.980;2023-06-05T09:02:41;19.00;99.90
52709;DHT22;38606;52.986;6.980;2023-06-05T09:05:12;19.50;99.90
52709;DHT22;38606;52.986;6.980;2023-06-05T09:07:38;19.20;99.90
52709;DHT22;38606;52.986;6.980;2023-06-05T09:10:05;19.00;99.90
52709;DHT22;38606;52.986;6.980;2023-06-05T09:12:31;19.30;99.90
52709;DHT22;38606;52.986;6.980;2023-06-05T09:14:57;19.40;99.90
52709;DHT22;38606;52.986;6.980;2023-06-05T09:17:23;19.30;99.90
52709;DHT22;38606;52.986;6.980;2023-06-05T09:19:49;19.30;99.90
52709;DHT22;38606;52.986;6.980;2023-06-05T09:22:16;19.30;99.90
52709;DHT22;38606;52.986;6.980;2023-06-05T09:24:57;19.80;99.90
52709;DHT22;38606;52.986;6.980;2023-06-05T09:27:23;19.60;99.90
52709;DHT22;38606;52.986;6.980;2023-06-05T09:30:02;20.00;99.90
52709;DHT22;38606;52.986;6.980;2023-06-05T09:32:29;19.90;99.90
52709;DHT22;38606;52.986;6.980;2023-06-05T09:34:56;20.10;99.90
52709;DHT22;38606;52.986;6.980;2023-06-05T09:37:36;19.80;99.90
52709;DHT22;38606;52.986;6.980;2023-06-05T09:40:03;20.10;99.90
52709;DHT22;38606;52.986;6.980;2023-06-05T09:42:34;19.90;99.90
52709;DHT22;38606;52.986;6.980;2023-06-05T09:45:01;20.20;99.90
52709;DHT22;38606;52.986;6.980;2023-06-05T09:47:27;20.30;99.90
52709;DHT22;38606;52.986;6.980;2023-06-05T09:49:52;20.30;99.90
52709;DHT22;38606;52.986;6.980;2023-06-05T09:52:19;20.30;99.90
52709;DHT22;38606;52.986;6.980;2023-06-05T09:54:46;19.60;99.90
52709;DHT22;38606;52.986;6.980;2023-06-05T09:57:13;20.50;99.90
52709;DHT22;38606;52.986;6.980;2023-06-05T09:59:50;20.40;99.90
52709;DHT22;38606;52.986;6.980;2023-06-05T10:02:17;20.30;99.90
52709;DHT22;38606;52.986;6.980;2023-06-05T10:04:51;20.40;99.90
52709;DHT22;38606;52.986;6.980;2023-06-05T10:07:17;20.50;99.90
52709;DHT22;38606;52.986;6.980;2023-06-05T10:09:44;20.70;99.90
52709;DHT22;38606;52.986;6.980;2023-06-05T10:12:15;20.70;99.90
52709;DHT22;38606;52.986;6.980;2023-06-05T10:14:42;20.70;99.90
52709;DHT22;38606;52.986;6.980;2023-06-05T10:17:12;20.80;99.90
52709;DHT22;38606;52.986;6.980;2023-06-05T10:19:44;20.80;99.90
52709;DHT22;38606;52.986;6.980;2023-06-05T10:22:11;20.80;99.90
52709;DHT22;38606;52.986;6.980;2023-06-05T10:24:46;21.10;99.90
52709;DHT22;38606;52.986;6.980;2023-06-05T10:32:53;21.00;99.90
52709;DHT22;38606;52.986;6.980;2023-06-05T10:38:22;21.40;99.90
52709;DHT22;38606;52.986;6.980;2023-06-05T10:40:55;21.30;99.90
52709;DHT22;38606;52.986;6.980;2023-06-05T10:43:31;21.20;99.90
52709;DHT22;38606;52.986;6.980;2023-06-05T10:46:00;21.10;99.90
52709;DHT22;38606;52.986;6.980;2023-06-05T10:51:39;21.20;99.90
52709;DHT22;38606;52.986;6.980;2023-06-05T10:59:25;22.10;99.90
52709;DHT22;38606;52.986;6.980;2023-06-05T11:07:27;21.30;99.90
52709;DHT22;38606;52.986;6.980;2023-06-05T11:15:07;21.70;99.80
52709;DHT22;38606;52.986;6.980;2023-06-05T11:28:03;21.80;99.00
52709;DHT22;38606;52.986;6.980;2023-06-05T11:30:38;21.80;99.20
52709;DHT22;38606;52.986;6.980;2023-06-05T11:35:35;21.50;99.30
52709;DHT22;38606;52.986;6.980;2023-06-05T11:40:43;22.00;98.00
52709;DHT22;38606;52.986;6.980;2023-06-05T11:43:11;21.70;98.60
52709;DHT22;38606;52.986;6.980;2023-06-05T11:45:38;21.90;99.00
52709;DHT22;38606;52.986;6.980;2023-06-05T11:50:32;22.20;98.30
52709;DHT22;38606;52.986;6.980;2023-06-05T11:53:08;22.10;99.00
52709;DHT22;38606;52.986;6.980;2023-06-05T11:55:34;22.30;99.40
52709;DHT22;38606;52.986;6.980;2023-06-05T11:58:25;22.30;99.00
52709;DHT22;38606;52.986;6.980;2023-06-05T12:00:52;22.20;99.70
52709;DHT22;38606;52.986;6.980;2023-06-05T12:03:21;22.10;98.90
52709;DHT22;38606;52.986;6.980;2023-06-05T12:05:48;22.20;98.70
52709;DHT22;38606;52.986;6.980;2023-06-05T12:08:25;22.20;98.40
52709;DHT22;38606;52.986;6.980;2023-06-05T12:10:54;22.20;98.10
52709;DHT22;38606;52.986;6.980;2023-06-05T12:13:22;22.20;98.10
52709;DHT22;38606;52.986;6.980;2023-06-05T12:16:00;22.30;98.20
52709;DHT22;38606;52.986;6.980;2023-06-05T12:18:33;22.10;98.60
52709;DHT22;38606;52.986;6.980;2023-06-05T12:21:00;22.30;98.40
52709;DHT22;38606;52.986;6.980;2023-06-05T12:23:26;22.20;97.70
52709;DHT22;38606;52.986;6.980;2023-06-05T12:26:02;22.20;97.20
52709;DHT22;38606;52.986;6.980;2023-06-05T12:28:29;22.20;97.20
52709;DHT22;38606;52.986;6.980;2023-06-05T12:30:55;22.30;98.00
52709;DHT22;38606;52.986;6.980;2023-06-05T12:33:24;22.20;97.50
52709;DHT22;38606;52.986;6.980;2023-06-05T12:36:06;22.30;98.10
52709;DHT22;38606;52.986;6.980;2023-06-05T12:38:39;22.30;98.00
52709;DHT22;38606;52.986;6.980;2023-06-05T12:41:10;22.40;98.70
52709;DHT22;38606;52.986;6.980;2023-06-05T12:43:36;22.20;98.20
52709;DHT22;38606;52.986;6.980;2023-06-05T12:46:02;21.90;97.40
52709;DHT22;38606;52.986;6.980;2023-06-05T12:48:28;22.20;97.90
52709;DHT22;38606;52.986;6.980;2023-06-05T12:50:55;22.40;97.80
52709;DHT22;38606;52.986;6.980;2023-06-05T12:53:21;22.10;98.20
52709;DHT22;38606;52.986;6.980;2023-06-05T12:55:47;22.50;98.30
52709;DHT22;38606;52.986;6.980;2023-06-05T12:58:13;22.40;97.90
52709;DHT22;38606;52.986;6.980;2023-06-05T13:00:39;22.40;97.90
52709;DHT22;38606;52.986;6.980;2023-06-05T13:03:05;22.40;98.20
52709;DHT22;38606;52.986;6.980;2023-06-05T13:05:31;22.40;98.00
52709;DHT22;38606;52.986;6.980;2023-06-05T13:07:58;22.50;97.80
52709;DHT22;38606;52.986;6.980;2023-06-05T13:10:25;22.50;98.30
52709;DHT22;38606;52.986;6.980;2023-06-05T13:12:51;22.40;98.10
52709;DHT22;38606;52.986;6.980;2023-06-05T13:15:17;23.30;97.70
52709;DHT22;38606;52.986;6.980;2023-06-05T13:17:43;22.50;97.70
52709;DHT22;38606;52.986;6.980;2023-06-05T13:20:09;22.40;97.60
52709;DHT22;38606;52.986;6.980;2023-06-05T13:22:39;22.10;97.70
52709;DHT22;38606;52.986;6.980;2023-06-05T13:25:09;22.20;98.20
52709;DHT22;38606;52.986;6.980;2023-06-05T13:27:35;21.00;98.30
52709;DHT22;38606;52.986;6.980;2023-06-05T13:30:01;22.40;99.10
52709;DHT22;38606;52.986;6.980;2023-06-05T13:32:29;22.10;98.80
52709;DHT22;38606;52.986;6.980;2023-06-05T13:34:57;21.90;98.50
52709;DHT22;38606;52.986;6.980;2023-06-05T13:37:23;21.90;98.80
52709;DHT22;38606;52.986;6.980;2023-06-05T13:39:49;22.10;98.90
52709;DHT22;38606;52.986;6.980;2023-06-05T13:42:14;22.00;98.80
52709;DHT22;38606;52.986;6.980;2023-06-05T13:44:40;21.90;98.80
52709;DHT22;38606;52.986;6.980;2023-06-05T13:47:06;22.00;98.90
52709;DHT22;38606;52.986;6.980;2023-06-05T13:49:34;21.50;99.50
52709;DHT22;38606;52.986;6.980;2023-06-05T13:52:00;21.60;99.70
52709;DHT22;38606;52.986;6.980;2023-06-05T13:54:25;21.80;99.70
52709;DHT22;38606;52.986;6.980;2023-06-05T13:56:51;21.40;99.70
52709;DHT22;38606;52.986;6.980;2023-06-05T13:59:17;21.60;99.70
52709;DHT22;38606;52.986;6.980;2023-06-05T14:01:43;21.50;99.70
52709;DHT22;38606;52.986;6.980;2023-06-05T14:04:09;21.30;99.90
52709;DHT22;38606;52.986;6.980;2023-06-05T14:06:35;21.50;99.90
52709;DHT22;38606;52.986;6.980;2023-06-05T14:09:05;21.40;99.90
52709;DHT22;38606;52.986;6.980;2023-06-05T14:11:32;21.50;99.90
52709;DHT22;38606;52.986;6.980;2023-06-05T14:13:57;21.50;99.90
52709;DHT22;38606;52.986;6.980;2023-06-05T14:16:24;21.40;99.90
52709;DHT22;38606;52.986;6.980;2023-06-05T14:18:50;21.20;99.90
52709;DHT22;38606;52.986;6.980;2023-06-05T14:21:16;21.50;99.90
52709;DHT22;38606;52.986;6.980;2023-06-05T14:23:42;21.20;99.90
52709;DHT22;38606;52.986;6.980;2023-06-05T14:26:08;21.20;99.90
52709;DHT22;38606;52.986;6.980;2023-06-05T14:28:36;21.10;99.90
52709;DHT22;38606;52.986;6.980;2023-06-05T14:31:02;21.00;99.90
52709;DHT22;38606;52.986;6.980;2023-06-05T14:33:27;21.60;99.90
52709;DHT22;38606;52.986;6.980;2023-06-05T14:35:54;21.20;99.90
52709;DHT22;38606;52.986;6.980;2023-06-05T14:38:20;21.30;99.90
52709;DHT22;38606;52.986;6.980;2023-06-05T14:40:46;21.20;99.90
52709;DHT22;38606;52.986;6.980;2023-06-05T14:43:15;21.20;99.90
52709;DHT22;38606;52.986;6.980;2023-06-05T14:45:41;21.00;99.90
52709;DHT22;38606;52.986;6.980;2023-06-05T14:48:08;20.90;99.90
52709;DHT22;38606;52.986;6.980;2023-06-05T14:50:36;20.80;99.90
52709;DHT22;38606;52.986;6.980;2023-06-05T14:53:02;20.00;99.90
52709;DHT22;38606;52.986;6.980;2023-06-05T14:55:27;20.70;99.90
52709;DHT22;38606;52.986;6.980;2023-06-05T14:57:53;20.60;99.90
52709;DHT22;38606;52.986;6.980;2023-06-05T15:00:19;20.50;99.90
52709;DHT22;38606;52.986;6.980;2023-06-05T15:02:45;20.40;99.90
52709;DHT22;38606;52.986;6.980;2023-06-05T15:05:14;20.50;99.90
52709;DHT22;38606;52.986;6.980;2023-06-05T15:07:41;20.30;99.90
52709;DHT22;38606;52.986;6.980;2023-06-05T15:10:08;20.40;99.90
52709;DHT22;38606;52.986;6.980;2023-06-05T15:12:35;21.00;99.90
52709;DHT22;38606;52.986;6.980;2023-06-05T15:15:01;20.40;99.90
52709;DHT22;38606;52.986;6.980;2023-06-05T15:17:27;20.30;99.90
52709;DHT22;38606;52.986;6.980;2023-06-05T15:19:55;20.10;99.90
52709;DHT22;38606;52.986;6.980;2023-06-05T15:22:21;20.40;99.90
52709;DHT22;38606;52.986;6.980;2023-06-05T15:24:47;20.20;99.90
52709;DHT22;38606;52.986;6.980;2023-06-05T15:27:13;20.20;99.90
52709;DHT22;38606;52.986;6.980;2023-06-05T15:29:39;20.00;99.90
52709;DHT22;38606;52.986;6.980;2023-06-05T15:32:05;19.90;99.90
52709;DHT22;38606;52.986;6.980;2023-06-05T15:34:31;19.70;99.90
52709;DHT22;38606;52.986;6.980;2023-06-05T15:36:57;19.70;99.90
52709;DHT22;38606;52.986;6.980;2023-06-05T15:39:23;19.70;99.90
52709;DHT22;38606;52.986;6.980;2023-06-05T15:41:49;19.80;99.90
52709;DHT22;38606;52.986;6.980;2023-06-05T15:44:15;19.60;99.90
52709;DHT22;38606;52.986;6.980;2023-06-05T15:46:41;19.50;99.90
52709;DHT22;38606;52.986;6.980;2023-06-05T15:49:07;19.30;99.90
52709;DHT22;38606;52.986;6.980;2023-06-05T15:51:33;19.40;99.90
52709;DHT22;38606;52.986;6.980;2023-06-05T15:53:59;19.40;99.90
52709;DHT22;38606;52.986;6.980;2023-06-05T15:56:25;19.10;99.90
52709;DHT22;38606;52.986;6.980;2023-06-05T15:58:52;19.30;99.90
52709;DHT22;38606;52.986;6.980;2023-06-05T16:01:18;19.10;99.90
52709;DHT22;38606;52.986;6.980;2023-06-05T16:03:44;18.80;99.90
52709;DHT22;38606;52.986;6.980;2023-06-05T16:06:09;18.90;99.90
52709;DHT22;38606;52.986;6.980;2023-06-05T16:08:39;18.90;99.90
52709;DHT22;38606;52.986;6.980;2023-06-05T16:11:06;19.00;99.90
52709;DHT22;38606;52.986;6.980;2023-06-05T16:13:31;18.60;99.90
52709;DHT22;38606;52.986;6.980;2023-06-05T16:15:57;18.70;99.90
52709;DHT22;38606;52.986;6.980;2023-06-05T16:18:26;18.70;99.90
52709;DHT22;38606;52.986;6.980;2023-06-05T16:20:54;18.60;99.90
52709;DHT22;38606;52.986;6.980;2023-06-05T16:23:20;18.70;99.90